METAR Data
IDs: Format: Raw Decoded Include TAF

Data at: 2305 UTC 01 Feb 2023

METAR for:K7BM (Bald Mountain, CO, US)
Text:K7BM 012255Z AUTO 16005KT 10SM CLR 01/M16 A3008 RMK AO2
Temperature: 1.0°C ( 34°F)
Dewpoint:-16.0°C ( 3°F) [RH = 27%]
Pressure (altimeter):30.08 inches Hg (1018.7 mb)
Winds:from the SSE (160 degrees) at 6 MPH (5 knots; 2.6 m/s)
Visibility:10 or more sm (16+ km)
Ceiling:at least 12,000 feet AGL
Clouds:sky clear below 12,000 feet AGL
QC Flag:automated observation with no human augmentation